createdAt,value
2018-04-18T00:01:20.626Z,13.44
2018-04-18T00:03:46.526Z,13.41
2018-04-18T00:06:15.800Z,13.31
2018-04-18T00:08:41.710Z,13.24
2018-04-18T00:11:11.538Z,13.23
2018-04-18T00:13:37.425Z,13.24
2018-04-18T00:16:06.571Z,13.16
2018-04-18T00:18:32.446Z,13.16
2018-04-18T00:20:58.355Z,13.14
2018-04-18T00:23:24.266Z,13.06
2018-04-18T00:25:50.156Z,13.05
2018-04-18T00:28:17.094Z,13.04
2018-04-18T00:30:43.006Z,12.95
2018-04-18T00:33:11.224Z,12.94
2018-04-18T00:35:37.113Z,12.91
2018-04-18T00:38:06.457Z,12.89
2018-04-18T00:40:32.345Z,12.85
2018-04-18T00:43:01.712Z,12.79
2018-04-18T00:45:27.631Z,12.70
2018-04-18T00:47:57.140Z,12.59
2018-04-18T00:50:23.039Z,12.45
2018-04-18T00:52:50.195Z,12.52
2018-04-18T00:55:16.076Z,12.53
2018-04-18T00:57:41.974Z,12.42
2018-04-18T01:00:07.875Z,12.49
2018-04-18T01:02:33.779Z,12.50
2018-04-18T01:05:03.574Z,12.57
2018-04-18T01:07:29.509Z,12.57
2018-04-18T01:09:56.928Z,12.59
2018-04-18T01:12:22.796Z,12.51
2018-04-18T01:14:52.151Z,12.39
2018-04-18T01:17:18.051Z,12.26
2018-04-18T01:19:47.602Z,12.13
2018-04-18T01:22:13.495Z,12.07
2018-04-18T01:24:40.859Z,12.16
2018-04-18T01:27:06.763Z,12.23
2018-04-18T01:29:36.271Z,12.21
2018-04-18T01:32:02.204Z,12.16
2018-04-18T01:34:28.098Z,12.06
2018-04-18T01:36:53.999Z,12.12
2018-04-18T01:39:19.900Z,12.06
2018-04-18T01:41:47.679Z,12.00
2018-04-18T01:44:13.611Z,11.94
2018-04-18T01:46:43.449Z,11.97
2018-04-18T01:49:20.695Z,11.92
2018-04-18T01:51:46.622Z,11.92
2018-04-18T01:54:12.491Z,11.97
2018-04-18T01:56:38.400Z,11.94
2018-04-18T01:59:04.303Z,11.84
2018-04-18T02:01:30.218Z,11.85
2018-04-18T02:03:56.088Z,11.85
2018-04-18T02:06:21.979Z,11.93
2018-04-18T02:08:47.951Z,11.91
2018-04-18T02:11:13.852Z,11.83
2018-04-18T02:13:39.761Z,11.75
2018-04-18T02:16:05.659Z,11.76
2018-04-18T02:18:32.527Z,11.71
2018-04-18T02:20:58.436Z,11.75
2018-04-18T02:23:27.196Z,11.70
2018-04-18T02:25:53.067Z,11.56
2018-04-18T02:28:22.686Z,11.51
2018-04-18T02:30:48.583Z,11.49
2018-04-18T02:33:18.129Z,11.49
2018-04-18T02:35:44.075Z,11.50
2018-04-18T02:38:11.046Z,11.43
2018-04-18T02:40:36.976Z,11.41
2018-04-18T02:43:05.957Z,11.40
2018-04-18T02:45:31.849Z,11.40
2018-04-18T02:47:57.769Z,11.39
2018-04-18T02:50:23.660Z,11.42
2018-04-18T02:52:49.554Z,11.36
2018-04-18T02:55:19.331Z,11.30
2018-04-18T02:57:45.226Z,11.22
2018-04-18T03:00:12.327Z,11.25
2018-04-18T03:02:38.221Z,11.23
2018-04-18T03:05:07.643Z,11.22
2018-04-18T03:07:33.627Z,11.17
2018-04-18T03:10:02.689Z,11.20
2018-04-18T03:12:28.575Z,11.15
2018-04-18T03:14:57.960Z,11.13
2018-04-18T03:17:23.903Z,11.13
2018-04-18T03:19:51.196Z,11.00
2018-04-18T03:22:17.066Z,10.93
2018-04-18T03:24:42.983Z,10.88
2018-04-18T03:27:08.867Z,10.85
2018-04-18T03:29:34.759Z,10.84
2018-04-18T03:32:04.485Z,10.88
2018-04-18T03:34:30.348Z,10.90
2018-04-18T03:36:57.762Z,10.82
2018-04-18T03:39:23.665Z,10.87
2018-04-18T03:41:53.326Z,10.87
2018-04-18T03:44:19.215Z,10.87
2018-04-18T03:46:48.104Z,10.86
2018-04-18T03:49:14.023Z,10.79
2018-04-18T03:51:43.238Z,10.81
2018-04-18T03:54:09.162Z,10.79
2018-04-18T03:56:38.222Z,10.81
2018-04-18T03:59:04.096Z,10.80
2018-04-18T04:01:29.955Z,10.79
2018-04-18T04:03:55.895Z,10.82
2018-04-18T04:06:21.793Z,10.72
2018-04-18T04:08:48.101Z,10.70
2018-04-18T04:11:14.000Z,10.69
2018-04-18T04:13:42.863Z,10.68
2018-04-18T04:16:21.334Z,10.69
2018-04-18T04:21:57.481Z,10.49
2018-04-18T04:27:21.999Z,10.47
2018-04-18T04:29:47.877Z,10.38
2018-04-18T04:32:13.754Z,10.36
2018-04-18T04:34:39.679Z,10.44
2018-04-18T04:37:05.593Z,10.49
2018-04-18T04:39:46.515Z,10.55
2018-04-18T04:42:12.423Z,10.59
2018-04-18T04:44:38.323Z,10.61
2018-04-18T04:47:04.182Z,10.61
2018-04-18T04:49:30.107Z,10.61
2018-04-18T04:51:55.971Z,10.64
2018-04-18T04:54:21.869Z,10.64
2018-04-18T04:56:47.777Z,10.58
2018-04-18T04:59:13.669Z,10.52
2018-04-18T05:01:39.556Z,10.43
2018-04-18T05:04:05.441Z,10.48
2018-04-18T05:06:31.375Z,10.60
2018-04-18T05:08:57.318Z,10.66
2018-04-18T05:11:23.215Z,10.72
2018-04-18T05:13:49.117Z,10.77
2018-04-18T05:16:14.987Z,10.83
2018-04-18T05:18:40.901Z,10.90
2018-04-18T05:21:07.368Z,10.98
2018-04-18T05:23:33.254Z,11.08
2018-04-18T05:26:03.094Z,11.12
2018-04-18T05:28:29.068Z,11.08
2018-04-18T05:30:58.508Z,11.14
2018-04-18T05:33:24.389Z,11.08
2018-04-18T05:35:50.223Z,11.18
2018-04-18T05:38:16.153Z,11.36
2018-04-18T05:40:42.065Z,11.49
2018-04-18T05:43:08.514Z,11.63
2018-04-18T05:45:34.388Z,11.73
2018-04-18T05:48:03.375Z,11.78
2018-04-18T05:50:29.258Z,11.89
2018-04-18T05:52:59.190Z,11.98
2018-04-18T05:55:25.122Z,12.20
2018-04-18T05:57:54.344Z,12.20
2018-04-18T06:00:20.311Z,12.27
2018-04-18T06:02:47.559Z,12.40
2018-04-18T06:05:13.503Z,12.58
2018-04-18T06:07:42.711Z,12.54
2018-04-18T06:10:08.610Z,12.69
2018-04-18T06:12:34.521Z,12.82
2018-04-18T06:15:00.460Z,12.84
2018-04-18T06:17:26.329Z,12.93
2018-04-18T06:19:54.246Z,12.96
2018-04-18T06:22:20.152Z,12.91
2018-04-18T06:24:49.432Z,13.12
2018-04-18T06:27:15.365Z,13.28
2018-04-18T06:29:43.246Z,13.40
2018-04-18T06:32:09.150Z,13.59
2018-04-18T06:34:38.522Z,13.82
2018-04-18T06:37:04.385Z,13.96
2018-04-18T06:39:33.615Z,14.18
2018-04-18T06:41:59.498Z,14.31
2018-04-18T06:44:28.515Z,14.46
2018-04-18T06:46:54.451Z,14.69
2018-04-18T06:49:20.337Z,14.73
2018-04-18T06:51:46.217Z,14.88
2018-04-18T06:54:12.125Z,15.01
2018-04-18T06:56:39.640Z,15.10
2018-04-18T06:59:05.566Z,15.25
2018-04-18T07:01:34.686Z,15.62
2018-04-18T07:04:00.574Z,16.06
2018-04-18T07:06:29.760Z,16.40
2018-04-18T07:08:55.692Z,16.93
2018-04-18T07:11:24.815Z,17.53
2018-04-18T07:13:50.729Z,17.93
2018-04-18T07:16:17.985Z,18.38
2018-04-18T07:18:43.912Z,18.69
2018-04-18T07:21:12.784Z,19.40
2018-04-18T07:23:38.646Z,20.04
2018-04-18T07:26:04.534Z,20.64
2018-04-18T07:28:30.520Z,21.27
2018-04-18T07:30:56.431Z,21.66
2018-04-18T07:33:26.087Z,21.78
2018-04-18T07:35:52.019Z,22.09
2018-04-18T07:38:19.768Z,22.45
2018-04-18T07:40:45.680Z,22.63
2018-04-18T07:43:14.872Z,23.03
2018-04-18T07:45:40.766Z,23.22
2018-04-18T07:48:10.167Z,23.34
2018-04-18T07:50:36.042Z,23.16
2018-04-18T07:53:03.435Z,23.09
2018-04-18T07:55:29.369Z,23.00
2018-04-18T07:57:58.826Z,23.07
2018-04-18T08:00:24.738Z,22.70
2018-04-18T08:02:50.618Z,22.61
2018-04-18T08:05:16.515Z,22.08
2018-04-18T08:07:42.430Z,21.99
2018-04-18T08:10:09.767Z,21.54
2018-04-18T08:12:35.669Z,21.29
2018-04-18T08:15:04.538Z,21.00
2018-04-18T08:17:30.448Z,21.14
2018-04-18T08:19:59.752Z,21.46
2018-04-18T08:22:25.657Z,21.89
2018-04-18T08:24:55.036Z,21.51
2018-04-18T08:27:20.923Z,21.37
2018-04-18T08:29:50.228Z,21.02
2018-04-18T08:32:16.110Z,21.22
2018-04-18T08:34:43.521Z,21.58
2018-04-18T08:37:09.448Z,21.91
2018-04-18T08:39:35.347Z,22.10
2018-04-18T08:42:01.272Z,22.16
2018-04-18T08:44:27.169Z,22.28
2018-04-18T08:46:56.638Z,22.51
2018-04-18T08:49:22.565Z,22.70
2018-04-18T08:51:49.980Z,23.12
2018-04-18T08:54:15.880Z,23.34
2018-04-18T08:56:45.282Z,23.37
2018-04-18T08:59:11.193Z,23.35
2018-04-18T09:01:39.389Z,23.13
2018-04-18T09:04:05.366Z,23.30
2018-04-18T09:06:33.662Z,23.36
2018-04-18T09:08:59.586Z,23.16
2018-04-18T09:11:28.343Z,22.95
2018-04-18T09:13:54.259Z,23.35
2018-04-18T09:16:20.154Z,23.35
2018-04-18T09:18:46.079Z,23.64
2018-04-18T09:21:11.974Z,24.03
2018-04-18T09:23:41.022Z,24.12
2018-04-18T09:26:06.897Z,24.38
2018-04-18T09:28:36.544Z,24.37
2018-04-18T09:31:02.463Z,23.26
2018-04-18T09:33:30.007Z,22.74
2018-04-18T09:35:55.899Z,22.91
2018-04-18T09:38:24.947Z,22.56
2018-04-18T09:40:50.835Z,22.64
2018-04-18T09:43:19.840Z,22.77
2018-04-18T09:45:45.714Z,23.14
2018-04-18T09:48:15.539Z,23.59
2018-04-18T09:50:41.483Z,24.10
2018-04-18T09:53:07.331Z,24.53
2018-04-18T09:55:33.181Z,24.27
2018-04-18T09:57:59.257Z,24.74
2018-04-18T10:00:32.296Z,25.10
2018-04-18T10:03:04.402Z,25.49
2018-04-18T10:05:30.291Z,25.53
2018-04-18T10:07:56.220Z,25.63
2018-04-18T10:10:22.166Z,25.64
2018-04-18T10:12:48.016Z,25.65
2018-04-18T10:15:13.939Z,25.45
2018-04-18T10:17:39.835Z,25.37
2018-04-18T10:20:05.763Z,24.98
2018-04-18T10:22:31.667Z,24.21
2018-04-18T10:25:00.872Z,24.43
2018-04-18T10:27:26.785Z,25.11
2018-04-18T10:29:52.708Z,25.75
2018-04-18T10:32:18.614Z,25.79
2018-04-18T10:34:44.547Z,26.24
2018-04-18T10:37:11.302Z,26.44
2018-04-18T10:39:37.210Z,26.30
2018-04-18T10:42:07.152Z,26.49
2018-04-18T10:44:33.070Z,26.67
2018-04-18T10:47:02.076Z,26.76
2018-04-18T10:49:27.980Z,27.23
2018-04-18T10:51:55.148Z,27.31
2018-04-18T10:54:21.023Z,26.95
2018-04-18T10:56:50.133Z,26.32
2018-04-18T10:59:16.014Z,26.87
2018-04-18T11:01:45.169Z,27.42
2018-04-18T11:04:11.066Z,27.87
2018-04-18T11:06:36.964Z,27.91
2018-04-18T11:09:02.893Z,28.34
2018-04-18T11:11:28.797Z,28.52
2018-04-18T11:13:56.301Z,28.40
2018-04-18T11:16:22.195Z,27.80
2018-04-18T11:18:51.944Z,27.87
2018-04-18T11:21:17.867Z,28.01
2018-04-18T11:23:47.210Z,28.31
2018-04-18T11:26:13.119Z,28.13
2018-04-18T11:28:40.446Z,28.28
2018-04-18T11:31:06.327Z,28.73
2018-04-18T11:33:36.008Z,28.68
2018-04-18T11:36:01.911Z,28.66
2018-04-18T11:38:31.206Z,27.77
2018-04-18T11:40:57.115Z,26.45
2018-04-18T11:43:23.005Z,27.33
2018-04-18T11:45:48.921Z,28.32
2018-04-18T11:48:14.821Z,28.04
2018-04-18T11:50:41.547Z,26.26
2018-04-18T11:53:07.434Z,26.39
2018-04-18T11:55:37.225Z,26.09
2018-04-18T11:58:03.151Z,26.91
2018-04-18T12:00:32.553Z,27.86
2018-04-18T12:02:58.478Z,28.37
2018-04-18T12:05:25.456Z,28.73
2018-04-18T12:07:51.341Z,27.35
2018-04-18T12:10:20.958Z,26.82
2018-04-18T12:12:46.893Z,27.88
2018-04-18T12:15:15.914Z,27.83
2018-04-18T12:17:41.868Z,25.64
2018-04-18T12:20:07.737Z,25.55
2018-04-18T12:22:33.632Z,25.98
2018-04-18T12:24:59.532Z,26.94
2018-04-18T12:27:28.550Z,27.80
2018-04-18T12:29:54.423Z,28.36
2018-04-18T12:32:22.241Z,27.28
2018-04-18T12:34:48.147Z,27.02
2018-04-18T12:37:17.851Z,27.98
2018-04-18T12:39:43.763Z,28.78
2018-04-18T12:42:11.246Z,29.27
2018-04-18T12:44:37.132Z,29.65
2018-04-18T12:47:05.446Z,29.55
2018-04-18T12:49:31.364Z,29.68
2018-04-18T12:52:00.174Z,29.89
2018-04-18T12:54:26.108Z,30.00
2018-04-18T12:56:52.011Z,29.52
2018-04-18T12:59:17.911Z,28.69
2018-04-18T13:01:43.799Z,29.18
2018-04-18T13:04:13.536Z,29.53
2018-04-18T13:06:39.503Z,29.60
2018-04-18T13:09:06.834Z,29.59
2018-04-18T13:11:32.728Z,28.50
2018-04-18T13:14:01.943Z,27.48
2018-04-18T13:16:27.855Z,28.43
2018-04-18T13:18:56.533Z,29.16
2018-04-18T13:21:22.418Z,28.98
2018-04-18T13:23:51.272Z,29.13
2018-04-18T13:26:17.190Z,28.99
2018-04-18T13:28:46.353Z,29.36
2018-04-18T13:31:12.261Z,29.71
2018-04-18T13:33:38.174Z,29.99
2018-04-18T13:36:04.093Z,30.00
2018-04-18T13:38:29.974Z,30.01
2018-04-18T13:40:57.771Z,30.30
2018-04-18T13:43:23.682Z,30.08
2018-04-18T13:45:52.191Z,30.01
2018-04-18T13:48:18.091Z,30.03
2018-04-18T13:50:47.050Z,28.93
2018-04-18T13:53:12.967Z,28.30
2018-04-18T13:55:41.974Z,27.41
2018-04-18T13:58:07.850Z,27.60
2018-04-18T14:00:37.156Z,28.17
2018-04-18T14:03:03.105Z,28.97
2018-04-18T14:05:32.539Z,29.42
2018-04-18T14:07:58.432Z,29.48
2018-04-18T14:10:24.355Z,29.75
2018-04-18T14:12:50.246Z,29.56
2018-04-18T14:15:16.136Z,29.43
2018-04-18T14:17:43.145Z,29.39
2018-04-18T14:20:09.004Z,29.89
2018-04-18T14:22:38.016Z,30.21
2018-04-18T14:25:03.920Z,30.65
2018-04-18T14:27:33.518Z,30.74
2018-04-18T14:29:59.449Z,30.53
2018-04-18T14:32:28.547Z,30.56
2018-04-18T14:34:54.427Z,30.30
2018-04-18T14:37:21.992Z,30.55
2018-04-18T14:39:47.894Z,31.09
2018-04-18T14:42:16.271Z,30.28
2018-04-18T14:44:42.188Z,30.23
2018-04-18T14:47:08.056Z,29.87
2018-04-18T14:49:33.972Z,30.44
2018-04-18T14:51:59.872Z,30.73
2018-04-18T14:54:29.472Z,30.37
2018-04-18T14:56:55.383Z,30.76
2018-04-18T14:59:22.600Z,30.47
2018-04-18T15:01:48.472Z,31.18
2018-04-18T15:04:18.388Z,31.89
2018-04-18T15:06:44.313Z,32.31
2018-04-18T15:09:12.057Z,31.70
2018-04-18T15:11:37.948Z,32.15
2018-04-18T15:14:07.513Z,32.20
2018-04-18T15:16:33.442Z,32.55
2018-04-18T15:19:03.129Z,32.74
2018-04-18T15:21:29.001Z,32.57
2018-04-18T15:23:54.907Z,32.02
2018-04-18T15:26:20.771Z,32.15
2018-04-18T15:28:46.654Z,32.54
2018-04-18T15:31:13.463Z,32.71
2018-04-18T15:33:39.391Z,32.32
2018-04-18T15:36:08.512Z,32.54
2018-04-18T15:38:34.435Z,32.39
2018-04-18T15:41:03.653Z,32.18
2018-04-18T15:43:29.559Z,31.49
2018-04-18T15:45:58.847Z,31.46
2018-04-18T15:48:24.738Z,31.39
2018-04-18T15:50:52.072Z,31.33
2018-04-18T15:53:17.972Z,31.23
2018-04-18T15:55:47.279Z,31.06
2018-04-18T15:58:13.143Z,30.71
2018-04-18T16:00:39.032Z,30.50
2018-04-18T16:03:04.917Z,30.52
2018-04-18T16:05:30.888Z,30.39
2018-04-18T16:07:58.247Z,30.32
2018-04-18T16:10:24.164Z,30.19
2018-04-18T16:12:53.114Z,30.05
2018-04-18T16:15:19.033Z,30.13
2018-04-18T16:17:48.724Z,30.17
2018-04-18T16:20:14.643Z,30.32
2018-04-18T16:22:44.068Z,29.82
2018-04-18T16:25:10.020Z,29.43
2018-04-18T16:27:37.776Z,29.03
2018-04-18T16:30:03.890Z,29.29
2018-04-18T16:32:33.404Z,29.29
2018-04-18T16:34:59.227Z,29.08
2018-04-18T16:37:25.093Z,29.15
2018-04-18T16:39:50.974Z,29.07
2018-04-18T16:42:16.883Z,28.78
2018-04-18T16:44:43.762Z,28.27
2018-04-18T16:47:09.659Z,28.08
2018-04-18T16:49:39.283Z,27.80
2018-04-18T16:52:05.191Z,27.65
2018-04-18T16:54:33.451Z,27.50
2018-04-18T16:56:59.406Z,27.38
2018-04-18T16:59:28.880Z,27.11
2018-04-18T17:01:54.762Z,27.00
2018-04-18T17:04:22.401Z,26.51
2018-04-18T17:06:48.323Z,26.13
2018-04-18T17:09:17.048Z,25.61
2018-04-18T17:11:42.941Z,25.77
2018-04-18T17:14:09.129Z,25.49
2018-04-18T17:16:35.936Z,25.53
2018-04-18T17:19:06.959Z,25.50
2018-04-18T17:21:32.998Z,25.55
2018-04-18T17:23:58.959Z,25.38
2018-04-18T17:26:24.894Z,25.35
2018-04-18T17:28:50.823Z,25.14
2018-04-18T17:31:18.470Z,24.87
2018-04-18T17:33:44.353Z,24.93
2018-04-18T17:36:13.807Z,24.82
2018-04-18T17:38:39.718Z,24.42
2018-04-18T17:41:07.958Z,24.48
2018-04-18T17:43:33.864Z,24.36
2018-04-18T17:46:03.385Z,24.36
2018-04-18T17:48:29.245Z,24.10
2018-04-18T17:50:55.111Z,23.94
2018-04-18T17:53:21.016Z,23.96
2018-04-18T17:55:46.932Z,23.88
2018-04-18T17:58:14.070Z,23.86
2018-04-18T18:00:39.996Z,23.83
2018-04-18T18:03:08.940Z,23.65
2018-04-18T18:05:34.877Z,23.54
2018-04-18T18:08:04.100Z,23.42
2018-04-18T18:10:29.999Z,23.32
2018-04-18T18:12:58.943Z,23.37
2018-04-18T18:15:24.821Z,23.31
2018-04-18T18:17:54.707Z,23.24
2018-04-18T18:20:20.659Z,23.05
2018-04-18T18:22:47.654Z,22.97
2018-04-18T18:25:13.610Z,22.95
2018-04-18T18:27:39.523Z,22.82
2018-04-18T18:30:05.416Z,22.77
2018-04-18T18:32:31.287Z,22.67
2018-04-18T18:35:00.448Z,22.58
2018-04-18T18:37:26.323Z,22.40
2018-04-18T18:39:55.546Z,22.28
2018-04-18T18:42:21.437Z,22.21
2018-04-18T18:44:48.715Z,22.15
2018-04-18T18:47:14.677Z,22.09
2018-04-18T18:49:43.378Z,22.00
2018-04-18T18:52:09.288Z,21.91
2018-04-18T18:54:38.003Z,21.86
2018-04-18T18:57:03.964Z,21.80
2018-04-18T18:59:33.472Z,21.71
2018-04-18T19:01:59.363Z,21.66
2018-04-18T19:04:25.295Z,21.63
2018-04-18T19:06:51.206Z,21.62
2018-04-18T19:09:17.075Z,21.61
2018-04-18T19:11:44.896Z,21.59
2018-04-18T19:14:10.829Z,21.47
2018-04-18T19:16:39.842Z,21.36
2018-04-18T19:19:05.742Z,21.29
2018-04-18T19:21:34.340Z,21.15
2018-04-18T19:24:00.239Z,21.02
2018-04-18T19:26:29.567Z,20.96
2018-04-18T19:28:55.504Z,20.90
2018-04-18T19:31:23.763Z,20.88
2018-04-18T19:33:49.680Z,20.79
2018-04-18T19:36:18.894Z,20.76
2018-04-18T19:38:44.790Z,20.68
2018-04-18T19:41:10.679Z,20.68
2018-04-18T19:43:36.595Z,20.64
2018-04-18T19:46:02.467Z,20.57
2018-04-18T19:48:30.123Z,20.57
2018-04-18T19:50:56.048Z,20.53
2018-04-18T19:53:25.621Z,20.50
2018-04-18T19:55:51.500Z,20.39
2018-04-18T19:58:19.754Z,20.38
2018-04-18T20:00:45.676Z,20.33
2018-04-18T20:03:14.817Z,20.29
2018-04-18T20:05:40.737Z,20.25
2018-04-18T20:08:10.295Z,20.19
2018-04-18T20:10:36.196Z,20.12
2018-04-18T20:13:03.945Z,20.08
2018-04-18T20:15:29.885Z,20.09
2018-04-18T20:17:55.815Z,20.06
2018-04-18T20:20:21.746Z,19.96
2018-04-18T20:22:47.680Z,19.93
2018-04-18T20:25:17.139Z,19.86
2018-04-18T20:27:43.019Z,19.78
2018-04-18T20:30:10.770Z,19.69
2018-04-18T20:32:36.639Z,19.69
2018-04-18T20:35:06.169Z,19.72
2018-04-18T20:37:32.061Z,19.71
2018-04-18T20:39:59.316Z,19.63
2018-04-18T20:42:25.248Z,19.66
2018-04-18T20:44:54.413Z,19.62
2018-04-18T20:47:20.337Z,19.56
2018-04-18T20:49:48.734Z,19.48
2018-04-18T20:52:14.636Z,19.41
2018-04-18T20:54:40.541Z,19.38
2018-04-18T20:57:06.428Z,19.33
2018-04-18T20:59:32.369Z,19.33
2018-04-18T21:02:00.588Z,19.30
2018-04-18T21:04:26.507Z,19.30
2018-04-18T21:06:55.403Z,19.23
2018-04-18T21:09:22.292Z,19.12
2018-04-18T21:11:51.647Z,19.10
2018-04-18T21:14:17.587Z,19.13
2018-04-18T21:16:44.909Z,19.10
2018-04-18T21:19:10.824Z,19.14
2018-04-18T21:21:40.242Z,19.10
2018-04-18T21:24:06.179Z,18.98
2018-04-18T21:26:34.102Z,19.11
2018-04-18T21:29:00.022Z,19.07
2018-04-18T21:31:25.882Z,19.00
2018-04-18T21:33:51.790Z,18.95
2018-04-18T21:36:17.720Z,18.96
2018-04-18T21:38:47.484Z,18.88
2018-04-18T21:41:13.419Z,18.85
2018-04-18T21:43:41.199Z,18.86
2018-04-18T21:46:07.086Z,18.87
2018-04-18T21:48:35.101Z,18.78
2018-04-18T21:51:00.995Z,18.70
2018-04-18T21:53:30.903Z,18.61
2018-04-18T21:55:56.812Z,18.60
2018-04-18T21:58:24.671Z,18.59
2018-04-18T22:00:50.552Z,18.60
2018-04-18T22:03:19.357Z,18.58
2018-04-18T22:05:45.265Z,18.53
2018-04-18T22:08:11.164Z,18.51
2018-04-18T22:10:37.060Z,18.42
2018-04-18T22:13:02.932Z,18.35
2018-04-18T22:15:32.142Z,18.29
2018-04-18T22:17:58.050Z,18.18
2018-04-18T22:20:25.873Z,18.17
2018-04-18T22:22:51.788Z,18.17
2018-04-18T22:25:20.626Z,18.15
2018-04-18T22:27:46.525Z,18.07
2018-04-18T22:30:15.788Z,17.90
2018-04-18T22:32:41.676Z,17.71
2018-04-18T22:35:11.166Z,17.55
2018-04-18T22:37:37.062Z,17.45
2018-04-18T22:40:04.720Z,17.37
2018-04-18T22:42:30.557Z,17.22
2018-04-18T22:44:56.474Z,17.15
2018-04-18T22:47:22.322Z,16.96
2018-04-18T22:49:48.223Z,16.87
2018-04-18T22:52:16.406Z,16.76
2018-04-18T22:54:42.260Z,16.52
2018-04-18T22:57:11.007Z,16.53
2018-04-18T22:59:36.854Z,16.45
2018-04-18T23:02:06.439Z,16.41
2018-04-18T23:04:32.392Z,16.43
2018-04-18T23:07:01.332Z,16.41
2018-04-18T23:09:27.242Z,16.28
2018-04-18T23:11:55.208Z,16.28
2018-04-18T23:14:21.088Z,16.18
2018-04-18T23:16:50.367Z,16.15
2018-04-18T23:19:16.287Z,16.02
2018-04-18T23:21:42.182Z,15.98
2018-04-18T23:24:08.104Z,15.72
2018-04-18T23:26:33.988Z,15.67
2018-04-18T23:29:01.825Z,15.62
2018-04-18T23:31:27.736Z,15.55
2018-04-18T23:33:57.253Z,15.58
2018-04-18T23:36:23.175Z,15.57
2018-04-18T23:38:53.027Z,15.47
2018-04-18T23:41:18.910Z,15.51
2018-04-18T23:43:46.518Z,15.26
2018-04-18T23:46:12.421Z,15.25
2018-04-18T23:48:42.078Z,15.25
2018-04-18T23:51:07.948Z,15.19
2018-04-18T23:53:35.395Z,15.12
2018-04-18T23:56:01.345Z,14.98
2018-04-18T23:58:27.279Z,14.96
